<?xml version='1.0' encoding='UTF-8'?><gpx version="1.1" creator="JPX - https://github.com/jenetics/jpx" xmlns="http://www.topografix.com/GPX/1/1"><trk><trkseg><trkpt lat="46.02424289006904" lon="13.351386155692895"><ele>85.66666666666667</ele><time>2026-04-11T08:20:04Z</time></trkpt><trkpt lat="46.02425179448776" lon="13.351295686495016"><ele>85.33333333333334</ele><time>2026-04-11T08:20:10Z</time></trkpt><trkpt lat="46.024229587956015" lon="13.351189219656009"><ele>85.0</ele><time>2026-04-11T08:20:20Z</time></trkpt><trkpt lat="46.024177933952565" lon="13.351064891678964"><ele>84.66666666666667</ele><time>2026-04-11T08:20:24Z</time></trkpt><trkpt lat="46.02415099143073" lon="13.350976966927597"><ele>84.33333333333333</ele><time>2026-04-11T08:20:30Z</time></trkpt><trkpt lat="46.02411065001692" lon="13.350882149176448"><ele>84.0</ele><time>2026-04-11T08:20:36Z</time></trkpt><trkpt lat="46.024077314749114" lon="13.350786673077549"><ele>84.0</ele><time>2026-04-11T08:20:42Z</time></trkpt><trkpt lat="46.02404416814899" lon="13.35070916818712"><ele>84.0</ele><time>2026-04-11T08:20:47Z</time></trkpt><trkpt lat="46.02400975607357" lon="13.350629348445032"><ele>84.0</ele><time>2026-04-11T08:20:52Z</time></trkpt><trkpt lat="46.023966172445256" lon="13.35055167389272"><ele>84.0</ele><time>2026-04-11T08:20:58Z</time></trkpt><trkpt lat="46.02393317052267" lon="13.350460972568774"><ele>84.0</ele><time>2026-04-11T08:21:04Z</time></trkpt><trkpt lat="46.02388892477526" lon="13.350375014582957"><ele>84.0</ele><time>2026-04-11T08:21:10Z</time></trkpt><trkpt lat="46.02386197361074" lon="13.350282940758918"><ele>84.0</ele><time>2026-04-11T08:21:15Z</time></trkpt><trkpt lat="46.02383721720315" lon="13.350193750816565"><ele>84.0</ele><time>2026-04-11T08:21:21Z</time></trkpt><trkpt lat="46.023807209681536" lon="13.350102226234213"><ele>84.0</ele><time>2026-04-11T08:21:26Z</time></trkpt><trkpt lat="46.02381590466721" lon="13.350007924514069"><ele>84.0</ele><time>2026-04-11T08:21:31Z</time></trkpt><trkpt lat="46.023892539046344" lon="13.350007256680252"><ele>84.0</ele><time>2026-04-11T08:21:37Z</time></trkpt><trkpt lat="46.02394656211911" lon="13.350083629904653"><ele>84.0</ele><time>2026-04-11T08:21:43Z</time></trkpt><trkpt lat="46.023988878160935" lon="13.350159074233527"><ele>84.0</ele><time>2026-04-11T08:21:48Z</time></trkpt><trkpt lat="46.02402873992553" lon="13.350241426689385"><ele>84.0</ele><time>2026-04-11T08:21:54Z</time></trkpt><trkpt lat="46.02406407949243" lon="13.350334279302716"><ele>84.0</ele><time>2026-04-11T08:22:00Z</time></trkpt><trkpt lat="46.02410324392624" lon="13.35042344597213"><ele>84.0</ele><time>2026-04-11T08:22:06Z</time></trkpt><trkpt lat="46.02413125714962" lon="13.350508377116116"><ele>84.0</ele><time>2026-04-11T08:22:11Z</time></trkpt><trkpt lat="46.024160681185926" lon="13.350596153953072"><ele>84.0</ele><time>2026-04-11T08:22:16Z</time></trkpt><trkpt lat="46.02418123855498" lon="13.350687013556096"><ele>84.0</ele><time>2026-04-11T08:22:21Z</time></trkpt><trkpt lat="46.024208906891644" lon="13.350775152424939"><ele>84.0</ele><time>2026-04-11T08:22:26Z</time></trkpt><trkpt lat="46.02424833397462" lon="13.350866664212994"><ele>84.0</ele><time>2026-04-11T08:22:32Z</time></trkpt><trkpt lat="46.02430679133716" lon="13.350934730437798"><ele>84.0</ele><time>2026-04-11T08:22:38Z</time></trkpt><trkpt lat="46.024375888711454" lon="13.350958255095074"><ele>84.0</ele><time>2026-04-11T08:22:44Z</time></trkpt><trkpt lat="46.02444502932209" lon="13.350922438262629"><ele>84.0</ele><time>2026-04-11T08:22:50Z</time></trkpt><trkpt lat="46.024504990981036" lon="13.350876045874948"><ele>84.0</ele><time>2026-04-11T08:22:55Z</time></trkpt><trkpt lat="46.02455836422981" lon="13.350818022483967"><ele>84.0</ele><time>2026-04-11T08:23:00Z</time></trkpt><trkpt lat="46.024611461085314" lon="13.350746159457815"><ele>84.0</ele><time>2026-04-11T08:23:06Z</time></trkpt><trkpt lat="46.024658815566404" lon="13.350672575491052"><ele>84.0</ele><time>2026-04-11T08:23:13Z</time></trkpt><trkpt lat="46.02466860472898" lon="13.350573780753308"><ele>84.0</ele><time>2026-04-11T08:23:19Z</time></trkpt><trkpt lat="46.02463622662818" lon="13.350491993817934"><ele>84.0</ele><time>2026-04-11T08:23:25Z</time></trkpt><trkpt lat="46.024571890066106" lon="13.350475882857152"><ele>84.0</ele><time>2026-04-11T08:23:31Z</time></trkpt><trkpt lat="46.02450075705302" lon="13.350454022766247"><ele>84.0</ele><time>2026-04-11T08:23:37Z</time></trkpt><trkpt lat="46.02443164387109" lon="13.35044340324799"><ele>84.0</ele><time>2026-04-11T08:23:43Z</time></trkpt><trkpt lat="46.02436457304417" lon="13.350406245607441"><ele>84.0</ele><time>2026-04-11T08:23:48Z</time></trkpt><trkpt lat="46.02430654719601" lon="13.350361466705246"><ele>84.0</ele><time>2026-04-11T08:23:53Z</time></trkpt><trkpt lat="46.024257635405185" lon="13.350286568885315"><ele>84.0</ele><time>2026-04-11T08:24:07Z</time></trkpt><trkpt lat="46.024210066860896" lon="13.35022104832709"><ele>84.0</ele><time>2026-04-11T08:24:12.001Z</time></trkpt><trkpt lat="46.0241682645764" lon="13.350135080470869"><ele>84.0</ele><time>2026-04-11T08:24:18.001Z</time></trkpt><trkpt lat="46.024137201401956" lon="13.350032207521052"><ele>84.0</ele><time>2026-04-11T08:24:24.001Z</time></trkpt><trkpt lat="46.02411414585515" lon="13.349937176437153"><ele>84.0</ele><time>2026-04-11T08:24:30.001Z</time></trkpt><trkpt lat="46.02409839259744" lon="13.34983156023593"><ele>84.0</ele><time>2026-04-11T08:24:36.001Z</time></trkpt><trkpt lat="46.02407207237065" lon="13.34973063558119"><ele>84.0</ele><time>2026-04-11T08:24:42.001Z</time></trkpt><trkpt lat="46.024061888219606" lon="13.349639202463266"><ele>84.28571428571429</ele><time>2026-04-11T08:24:47Z</time></trkpt><trkpt lat="46.02404161842644" lon="13.349543113015306"><ele>84.57142857142857</ele><time>2026-04-11T08:24:52Z</time></trkpt><trkpt lat="46.02399286983108" lon="13.349466324399875"><ele>84.85714285714286</ele><time>2026-04-11T08:24:58Z</time></trkpt><trkpt lat="46.02391992854563" lon="13.349462195152272"><ele>85.14285714285714</ele><time>2026-04-11T08:25:04Z</time></trkpt><trkpt lat="46.02386188970967" lon="13.349525781602"><ele>85.42857142857143</ele><time>2026-04-11T08:25:10Z</time></trkpt><trkpt lat="46.02380638100953" lon="13.3495838227533"><ele>85.71428571428572</ele><time>2026-04-11T08:25:16Z</time></trkpt><trkpt lat="46.02375005241919" lon="13.349624474043777"><ele>86.0</ele><time>2026-04-11T08:25:21Z</time></trkpt><trkpt lat="46.02368492951007" lon="13.349624836999375"><ele>86.00000000000001</ele><time>2026-04-11T08:25:27Z</time></trkpt><trkpt lat="46.02362245541177" lon="13.349575874615173"><ele>86.0</ele><time>2026-04-11T08:25:32Z</time></trkpt><trkpt lat="46.023596799423146" lon="13.34948206966348"><ele>86.0</ele><time>2026-04-11T08:25:38Z</time></trkpt><trkpt lat="46.02362753286001" lon="13.34938078291627"><ele>86.0</ele><time>2026-04-11T08:25:46Z</time></trkpt><trkpt lat="46.02368776509944" lon="13.349319921772322"><ele>86.0</ele><time>2026-04-11T08:25:53Z</time></trkpt><trkpt lat="46.0237436990827" lon="13.34925839917331"><ele>86.00000000000001</ele><time>2026-04-11T08:25:59Z</time></trkpt><trkpt lat="46.02379404100445" lon="13.349189808212211"><ele>86.0</ele><time>2026-04-11T08:26:05Z</time></trkpt><trkpt lat="46.023815084655475" lon="13.349094799376477"><ele>86.00000000000001</ele><time>2026-04-11T08:26:11Z</time></trkpt><trkpt lat="46.02380647931297" lon="13.348997501082899"><ele>86.0</ele><time>2026-04-11T08:26:17Z</time></trkpt><trkpt lat="46.02379117386074" lon="13.348909272982276"><ele>86.0</ele><time>2026-04-11T08:26:22Z</time></trkpt><trkpt lat="46.023766841326754" lon="13.348819801331663"><ele>86.0</ele><time>2026-04-11T08:26:27Z</time></trkpt><trkpt lat="46.023730926650565" lon="13.348735470559168"><ele>86.0</ele><time>2026-04-11T08:26:33Z</time></trkpt><trkpt lat="46.02369760476371" lon="13.348655706410327"><ele>86.00000000000001</ele><time>2026-04-11T08:26:38Z</time></trkpt><trkpt lat="46.023657026126635" lon="13.348586060546053"><ele>86.0</ele><time>2026-04-11T08:26:43Z</time></trkpt><trkpt lat="46.0236118704314" lon="13.348508242553965"><ele>86.14285714285715</ele><time>2026-04-11T08:26:48Z</time></trkpt><trkpt lat="46.02357199367927" lon="13.34843519347439"><ele>86.28571428571429</ele><time>2026-04-11T08:26:53Z</time></trkpt><trkpt lat="46.023530803698876" lon="13.348359453949264"><ele>86.42857142857143</ele><time>2026-04-11T08:26:58Z</time></trkpt><trkpt lat="46.02348707531138" lon="13.348285931438781"><ele>86.57142857142858</ele><time>2026-04-11T08:27:03Z</time></trkpt><trkpt lat="46.023443526271244" lon="13.348207518636956"><ele>86.71428571428572</ele><time>2026-04-11T08:27:08Z</time></trkpt><trkpt lat="46.023407026493494" lon="13.348111935098029"><ele>86.85714285714286</ele><time>2026-04-11T08:27:14Z</time></trkpt><trkpt lat="46.02337266695785" lon="13.348027679107657"><ele>87.0</ele><time>2026-04-11T08:27:19Z</time></trkpt><trkpt lat="46.023351663470905" lon="13.34793842331205"><ele>87.0</ele><time>2026-04-11T08:27:24Z</time></trkpt><trkpt lat="46.02333984731753" lon="13.347842931472195"><ele>87.0</ele><time>2026-04-11T08:27:29Z</time></trkpt><trkpt lat="46.02334166577506" lon="13.34773424429412"><ele>87.0</ele><time>2026-04-11T08:27:34Z</time></trkpt><trkpt lat="46.02333278809516" lon="13.347642536887662"><ele>87.0</ele><time>2026-04-11T08:27:38Z</time></trkpt><trkpt lat="46.02333909026823" lon="13.347550623970196"><ele>87.0</ele><time>2026-04-11T08:27:44Z</time></trkpt><trkpt lat="46.02335851072481" lon="13.347449926810775"><ele>87.0</ele><time>2026-04-11T08:27:50Z</time></trkpt><trkpt lat="46.023375822560354" lon="13.347353288534807"><ele>87.0</ele><time>2026-04-11T08:27:56Z</time></trkpt><trkpt lat="46.02339436594619" lon="13.347262136513855"><ele>87.0</ele><time>2026-04-11T08:28:02Z</time></trkpt><trkpt lat="46.023419521505616" lon="13.347165084832563"><ele>87.0</ele><time>2026-04-11T08:28:08Z</time></trkpt><trkpt lat="46.02344445758534" lon="13.347066562011294"><ele>87.0</ele><time>2026-04-11T08:28:14Z</time></trkpt><trkpt lat="46.02348954681803" lon="13.346996680595586"><ele>87.0</ele><time>2026-04-11T08:28:19Z</time></trkpt><trkpt lat="46.023557055774724" lon="13.347017466191906"><ele>87.0</ele><time>2026-04-11T08:28:24Z</time></trkpt><trkpt lat="46.023616422556536" lon="13.34707023089763"><ele>87.0</ele><time>2026-04-11T08:28:31Z</time></trkpt><trkpt lat="46.02366978996494" lon="13.347127873865333"><ele>87.0</ele><time>2026-04-11T08:28:38Z</time></trkpt><trkpt lat="46.023716197849126" lon="13.347211773776893"><ele>87.0</ele><time>2026-04-11T08:28:43Z</time></trkpt><trkpt lat="46.0237638820235" lon="13.347287209894414"><ele>87.0</ele><time>2026-04-11T08:28:49Z</time></trkpt><trkpt lat="46.02380995313027" lon="13.347356874013558"><ele>87.0</ele><time>2026-04-11T08:28:54Z</time></trkpt><trkpt lat="46.023861912720534" lon="13.347413954051671"><ele>87.0</ele><time>2026-04-11T08:29:00Z</time></trkpt><trkpt lat="46.023913206007094" lon="13.347493102008876"><ele>87.0</ele><time>2026-04-11T08:29:05Z</time></trkpt><trkpt lat="46.023965040976506" lon="13.347570143853153"><ele>87.0</ele><time>2026-04-11T08:29:11Z</time></trkpt><trkpt lat="46.024006577927835" lon="13.347649305092247"><ele>87.0</ele><time>2026-04-11T08:29:17Z</time></trkpt><trkpt lat="46.024055827308715" lon="13.347714482981123"><ele>87.0</ele><time>2026-04-11T08:29:23Z</time></trkpt><trkpt lat="46.02409077099212" lon="13.347796006331185"><ele>87.0</ele><time>2026-04-11T08:29:38Z</time></trkpt><trkpt lat="46.024118999769065" lon="13.347887004337101"><ele>87.0</ele><time>2026-04-11T08:29:46Z</time></trkpt><trkpt lat="46.02407493546539" lon="13.347964569721062"><ele>87.0</ele><time>2026-04-11T08:29:52Z</time></trkpt><trkpt lat="46.02400774351766" lon="13.347974553123136"><ele>87.0</ele><time>2026-04-11T08:29:58Z</time></trkpt><trkpt lat="46.02393731691815" lon="13.347936140386985"><ele>87.0</ele><time>2026-04-11T08:30:04Z</time></trkpt><trkpt lat="46.02387630716571" lon="13.347897867124088"><ele>87.0</ele><time>2026-04-11T08:30:09Z</time></trkpt><trkpt lat="46.02381845130118" lon="13.347845155913701"><ele>87.0</ele><time>2026-04-11T08:30:14Z</time></trkpt><trkpt lat="46.023761143154196" lon="13.347804237296216"><ele>87.0</ele><time>2026-04-11T08:30:19Z</time></trkpt><trkpt lat="46.023703739794584" lon="13.3477561627325"><ele>87.0</ele><time>2026-04-11T08:30:24Z</time></trkpt><trkpt lat="46.0236303780954" lon="13.347720876241672"><ele>87.0</ele><time>2026-04-11T08:30:30Z</time></trkpt><trkpt lat="46.023565275119424" lon="13.347742432402116"><ele>87.0</ele><time>2026-04-11T08:30:36Z</time></trkpt><trkpt lat="46.02356331902196" lon="13.34784119530496"><ele>87.0</ele><time>2026-04-11T08:30:42Z</time></trkpt><trkpt lat="46.023593566422164" lon="13.34792565928646"><ele>87.0</ele><time>2026-04-11T08:30:48Z</time></trkpt><trkpt lat="46.0236261273348" lon="13.348021381959981"><ele>87.0</ele><time>2026-04-11T08:30:54Z</time></trkpt><trkpt lat="46.02366241010741" lon="13.348099406973521"><ele>87.0</ele><time>2026-04-11T08:30:59Z</time></trkpt><trkpt lat="46.02370515267801" lon="13.348179193639796"><ele>87.0</ele><time>2026-04-11T08:31:05Z</time></trkpt><trkpt lat="46.02373666698662" lon="13.348264891919133"><ele>87.0</ele><time>2026-04-11T08:31:10Z</time></trkpt><trkpt lat="46.02377510841703" lon="13.348342094387094"><ele>87.0</ele><time>2026-04-11T08:31:15Z</time></trkpt><trkpt lat="46.023811592672004" lon="13.348427400867932"><ele>87.0</ele><time>2026-04-11T08:31:21Z</time></trkpt><trkpt lat="46.02384034445935" lon="13.348519053519446"><ele>87.0</ele><time>2026-04-11T08:31:26Z</time></trkpt><trkpt lat="46.02387140366512" lon="13.348598515831709"><ele>87.0</ele><time>2026-04-11T08:31:31Z</time></trkpt><trkpt lat="46.02388350928065" lon="13.348699886729516"><ele>87.0</ele><time>2026-04-11T08:31:37Z</time></trkpt><trkpt lat="46.02389792108505" lon="13.348796960763867"><ele>87.0</ele><time>2026-04-11T08:31:42Z</time></trkpt><trkpt lat="46.02392531266792" lon="13.34889781160506"><ele>87.0</ele><time>2026-04-11T08:31:48Z</time></trkpt><trkpt lat="46.02394785795572" lon="13.349006817496813"><ele>87.0</ele><time>2026-04-11T08:31:54Z</time></trkpt><trkpt lat="46.02398510809493" lon="13.34908312355727"><ele>87.0</ele><time>2026-04-11T08:31:59Z</time></trkpt><trkpt lat="46.02404917140787" lon="13.349135770882132"><ele>87.0</ele><time>2026-04-11T08:32:05Z</time></trkpt><trkpt lat="46.02411958805674" lon="13.349119160171401"><ele>87.0</ele><time>2026-04-11T08:32:11Z</time></trkpt><trkpt lat="46.024143314888164" lon="13.349017042257737"><ele>87.0</ele><time>2026-04-11T08:32:17Z</time></trkpt><trkpt lat="46.02413313443954" lon="13.348926164611749"><ele>87.0</ele><time>2026-04-11T08:32:22Z</time></trkpt><trkpt lat="46.024107195541895" lon="13.3488229917088"><ele>87.0</ele><time>2026-04-11T08:32:28Z</time></trkpt><trkpt lat="46.024074109791506" lon="13.348743707834826"><ele>87.0</ele><time>2026-04-11T08:32:33.001Z</time></trkpt><trkpt lat="46.0240509879988" lon="13.348644926255671"><ele>87.0</ele><time>2026-04-11T08:32:39.001Z</time></trkpt><trkpt lat="46.024023777229985" lon="13.34854954464652"><ele>87.0</ele><time>2026-04-11T08:32:44.001Z</time></trkpt><trkpt lat="46.02399650439802" lon="13.348464274363293"><ele>87.0</ele><time>2026-04-11T08:32:50.001Z</time></trkpt><trkpt lat="46.02398624428957" lon="13.34835901067801"><ele>87.0</ele><time>2026-04-11T08:32:56.001Z</time></trkpt><trkpt lat="46.024037873292315" lon="13.348283194728372"><ele>87.0</ele><time>2026-04-11T08:33:02Z</time></trkpt><trkpt lat="46.02410520459069" lon="13.34827142174895"><ele>87.0</ele><time>2026-04-11T08:33:08Z</time></trkpt><trkpt lat="46.02417823890422" lon="13.348304832261405"><ele>87.0</ele><time>2026-04-11T08:33:23Z</time></trkpt><trkpt lat="46.02422976834299" lon="13.348359470536401"><ele>87.0</ele><time>2026-04-11T08:33:28Z</time></trkpt><trkpt lat="46.024283634912486" lon="13.348415987382502"><ele>87.0</ele><time>2026-04-11T08:33:33Z</time></trkpt><trkpt lat="46.02433296559233" lon="13.348485903401826"><ele>86.85714285714286</ele><time>2026-04-11T08:33:39Z</time></trkpt><trkpt lat="46.02438655372397" lon="13.348559843122281"><ele>86.71428571428572</ele><time>2026-04-11T08:33:45Z</time></trkpt><trkpt lat="46.02443424936666" lon="13.348648093728112"><ele>86.57142857142858</ele><time>2026-04-11T08:33:51Z</time></trkpt><trkpt lat="46.02446584810534" lon="13.348744223372314"><ele>86.42857142857143</ele><time>2026-04-11T08:33:56Z</time></trkpt><trkpt lat="46.0244686455259" lon="13.348836186502778"><ele>86.28571428571429</ele><time>2026-04-11T08:34:05Z</time></trkpt><trkpt lat="46.024414925503955" lon="13.348902309083897"><ele>86.14285714285715</ele><time>2026-04-11T08:34:11Z</time></trkpt><trkpt lat="46.024342190681075" lon="13.348896851798276"><ele>86.0</ele><time>2026-04-11T08:34:17Z</time></trkpt><trkpt lat="46.02428445575569" lon="13.348939415739064"><ele>85.71428571428572</ele><time>2026-04-11T08:34:23Z</time></trkpt><trkpt lat="46.024270030942944" lon="13.349032833477551"><ele>85.42857142857143</ele><time>2026-04-11T08:34:30Z</time></trkpt><trkpt lat="46.024264987696995" lon="13.349124830046726"><ele>85.14285714285714</ele><time>2026-04-11T08:34:35Z</time></trkpt><trkpt lat="46.024271479033196" lon="13.349230238334009"><ele>84.85714285714286</ele><time>2026-04-11T08:34:41Z</time></trkpt><trkpt lat="46.02430603536319" lon="13.34931767537377"><ele>84.57142857142857</ele><time>2026-04-11T08:34:47Z</time></trkpt><trkpt lat="46.02435624594985" lon="13.349380429449612"><ele>84.28571428571429</ele><time>2026-04-11T08:34:53Z</time></trkpt><trkpt lat="46.02440027240302" lon="13.349460087115657"><ele>84.0</ele><time>2026-04-11T08:34:59Z</time></trkpt><trkpt lat="46.02442665358084" lon="13.349557672278491"><ele>84.0</ele><time>2026-04-11T08:35:05Z</time></trkpt><trkpt lat="46.02442596320337" lon="13.349659485306441"><ele>84.0</ele><time>2026-04-11T08:35:10Z</time></trkpt><trkpt lat="46.02443384566322" lon="13.349752844834287"><ele>84.0</ele><time>2026-04-11T08:35:15Z</time></trkpt><trkpt lat="46.024462561413436" lon="13.349856709961111"><ele>84.0</ele><time>2026-04-11T08:35:21Z</time></trkpt><trkpt lat="46.02453704138435" lon="13.349879332636748"><ele>84.0</ele><time>2026-04-11T08:35:27Z</time></trkpt><trkpt lat="46.02458741517408" lon="13.349794063025765"><ele>84.0</ele><time>2026-04-11T08:35:33Z</time></trkpt><trkpt lat="46.02460810710292" lon="13.349692995435804"><ele>84.0</ele><time>2026-04-11T08:35:39Z</time></trkpt><trkpt lat="46.02462887008324" lon="13.349590836132222"><ele>84.0</ele><time>2026-04-11T08:35:45Z</time></trkpt><trkpt lat="46.02464015862373" lon="13.349490907913747"><ele>84.0</ele><time>2026-04-11T08:35:51Z</time></trkpt><trkpt lat="46.02464774800034" lon="13.349389983417119"><ele>84.0</ele><time>2026-04-11T08:35:57Z</time></trkpt><trkpt lat="46.024647244398984" lon="13.34929734120602"><ele>84.0</ele><time>2026-04-11T08:36:02Z</time></trkpt><trkpt lat="46.0246543596528" lon="13.349197841270179"><ele>84.0</ele><time>2026-04-11T08:36:08Z</time></trkpt><trkpt lat="46.02466853274025" lon="13.349095711026497"><ele>84.0</ele><time>2026-04-11T08:36:14Z</time></trkpt><trkpt lat="46.024728774953985" lon="13.349053348149182"><ele>84.0</ele><time>2026-04-11T08:36:20Z</time></trkpt><trkpt lat="46.02476700663055" lon="13.349140926154949"><ele>84.0</ele><time>2026-04-11T08:36:26Z</time></trkpt><trkpt lat="46.02479187179604" lon="13.349241052214248"><ele>84.0</ele><time>2026-04-11T08:36:31Z</time></trkpt><trkpt lat="46.02482421491812" lon="13.349324511227307"><ele>84.0</ele><time>2026-04-11T08:36:36Z</time></trkpt><trkpt lat="46.02485647004033" lon="13.349406974849371"><ele>84.0</ele><time>2026-04-11T08:36:41Z</time></trkpt><trkpt lat="46.02492324311512" lon="13.349435528593897"><ele>84.0</ele><time>2026-04-11T08:36:47Z</time></trkpt><trkpt lat="46.02495733520853" lon="13.349348118107729"><ele>84.0</ele><time>2026-04-11T08:36:53Z</time></trkpt><trkpt lat="46.02495462630365" lon="13.349243957193597"><ele>84.0</ele><time>2026-04-11T08:36:59Z</time></trkpt><trkpt lat="46.02493581103688" lon="13.349154183576324"><ele>84.0</ele><time>2026-04-11T08:37:05Z</time></trkpt><trkpt lat="46.02490007046898" lon="13.349068526525826"><ele>84.0</ele><time>2026-04-11T08:37:11Z</time></trkpt><trkpt lat="46.02487395174717" lon="13.348967618830672"><ele>84.0</ele><time>2026-04-11T08:37:17Z</time></trkpt><trkpt lat="46.02483687491027" lon="13.348888237694371"><ele>84.0</ele><time>2026-04-11T08:37:22Z</time></trkpt><trkpt lat="46.024801199222786" lon="13.34881265886321"><ele>84.0</ele><time>2026-04-11T08:37:27Z</time></trkpt><trkpt lat="46.024768395157274" lon="13.348720407001"><ele>84.0</ele><time>2026-04-11T08:37:33Z</time></trkpt><trkpt lat="46.02472890693626" lon="13.34864389419913"><ele>84.0</ele><time>2026-04-11T08:37:39Z</time></trkpt><trkpt lat="46.02468648604898" lon="13.348551930043904"><ele>84.28571428571429</ele><time>2026-04-11T08:37:45Z</time></trkpt><trkpt lat="46.024634026065364" lon="13.348498218044162"><ele>84.57142857142857</ele><time>2026-04-11T08:37:50Z</time></trkpt><trkpt lat="46.02457607985925" lon="13.348431517355149"><ele>84.85714285714286</ele><time>2026-04-11T08:37:56Z</time></trkpt><trkpt lat="46.02452009428188" lon="13.3483815720497"><ele>85.14285714285714</ele><time>2026-04-11T08:38:01Z</time></trkpt><trkpt lat="46.024472186470284" lon="13.348322207684946"><ele>85.42857142857143</ele><time>2026-04-11T08:38:06Z</time></trkpt><trkpt lat="46.024430155269606" lon="13.348246313073135"><ele>85.71428571428572</ele><time>2026-04-11T08:38:11Z</time></trkpt><trkpt lat="46.024399326611764" lon="13.348157947003026"><ele>86.0</ele><time>2026-04-11T08:38:16Z</time></trkpt><trkpt lat="46.02437090849535" lon="13.348061392217168"><ele>86.00000000000001</ele><time>2026-04-11T08:38:22Z</time></trkpt><trkpt lat="46.024346686915955" lon="13.347976640311025"><ele>86.0</ele><time>2026-04-11T08:38:27Z</time></trkpt><trkpt lat="46.02435877903896" lon="13.347885288155327"><ele>86.0</ele><time>2026-04-11T08:38:33Z</time></trkpt><trkpt lat="46.02442841536264" lon="13.347915319716986"><ele>86.0</ele><time>2026-04-11T08:38:52Z</time></trkpt><trkpt lat="46.02447045934487" lon="13.34799540415314"><ele>86.0</ele><time>2026-04-11T08:38:58Z</time></trkpt><trkpt lat="46.02450800337119" lon="13.34807296123011"><ele>86.00000000000001</ele><time>2026-04-11T08:39:03Z</time></trkpt><trkpt lat="46.02455643038151" lon="13.34813986267087"><ele>86.0</ele><time>2026-04-11T08:39:08Z</time></trkpt><trkpt lat="46.02459500815075" lon="13.348218173571267"><ele>86.00000000000001</ele><time>2026-04-11T08:39:14Z</time></trkpt><trkpt lat="46.024645032121605" lon="13.34830268733337"><ele>86.0</ele><time>2026-04-11T08:39:20Z</time></trkpt><trkpt lat="46.02470394012384" lon="13.348258774095713"><ele>86.0</ele><time>2026-04-11T08:39:26Z</time></trkpt><trkpt lat="46.02469786371974" lon="13.34816526065362"><ele>86.0</ele><time>2026-04-11T08:39:32Z</time></trkpt><trkpt lat="46.024673271064906" lon="13.348076291915085"><ele>86.0</ele><time>2026-04-11T08:39:38Z</time></trkpt><trkpt lat="46.02464282211818" lon="13.347994354729146"><ele>86.00000000000001</ele><time>2026-04-11T08:39:43Z</time></trkpt><trkpt lat="46.02460886564068" lon="13.34790173576121"><ele>86.0</ele><time>2026-04-11T08:39:49Z</time></trkpt><trkpt lat="46.0245780956053" lon="13.347803595919581"><ele>85.85714285714286</ele><time>2026-04-11T08:39:55Z</time></trkpt><trkpt lat="46.02454565757992" lon="13.347709487285934"><ele>85.71428571428572</ele><time>2026-04-11T08:40:01Z</time></trkpt><trkpt lat="46.02450264018353" lon="13.347621285623593"><ele>85.57142857142858</ele><time>2026-04-11T08:40:07Z</time></trkpt><trkpt lat="46.02446633930074" lon="13.34754548300262"><ele>85.42857142857143</ele><time>2026-04-11T08:40:12Z</time></trkpt><trkpt lat="46.024411443557256" lon="13.347493426393434"><ele>85.28571428571428</ele><time>2026-04-11T08:40:17Z</time></trkpt><trkpt lat="46.0243411159665" lon="13.347481861987433"><ele>85.14285714285715</ele><time>2026-04-11T08:40:23Z</time></trkpt><trkpt lat="46.0242717219955" lon="13.347473935024778"><ele>85.0</ele><time>2026-04-11T08:40:28Z</time></trkpt><trkpt lat="46.024204315317306" lon="13.3474457881532"><ele>85.28571428571429</ele><time>2026-04-11T08:40:33Z</time></trkpt><trkpt lat="46.024138073495855" lon="13.347409191638299"><ele>85.57142857142857</ele><time>2026-04-11T08:40:39Z</time></trkpt><trkpt lat="46.02407504527868" lon="13.347347466149861"><ele>85.85714285714286</ele><time>2026-04-11T08:40:45Z</time></trkpt><trkpt lat="46.02402460653294" lon="13.347290040281095"><ele>86.14285714285714</ele><time>2026-04-11T08:40:50Z</time></trkpt><trkpt lat="46.02397216808844" lon="13.347219104900997"><ele>86.42857142857143</ele><time>2026-04-11T08:40:56Z</time></trkpt><trkpt lat="46.02392199297522" lon="13.347151436318791"><ele>86.71428571428571</ele><time>2026-04-11T08:41:01.001Z</time></trkpt><trkpt lat="46.023871899692" lon="13.347087631287362"><ele>87.0</ele><time>2026-04-11T08:41:06.001Z</time></trkpt><trkpt lat="46.023823918997415" lon="13.347025517800121"><ele>87.14285714285714</ele><time>2026-04-11T08:41:11Z</time></trkpt><trkpt lat="46.023780920796085" lon="13.346950369715415"><ele>87.28571428571429</ele><time>2026-04-11T08:41:16Z</time></trkpt><trkpt lat="46.02373981242215" lon="13.346879775496378"><ele>87.42857142857143</ele><time>2026-04-11T08:41:21Z</time></trkpt><trkpt lat="46.02368913636603" lon="13.346801127471375"><ele>87.57142857142857</ele><time>2026-04-11T08:41:27Z</time></trkpt><trkpt lat="46.023645747375355" lon="13.346733123361824"><ele>87.71428571428571</ele><time>2026-04-11T08:41:32Z</time></trkpt><trkpt lat="46.023594787422034" lon="13.346654564842476"><ele>87.85714285714286</ele><time>2026-04-11T08:41:38Z</time></trkpt><trkpt lat="46.023556001430336" lon="13.346579171139373"><ele>88.0</ele><time>2026-04-11T08:41:43Z</time></trkpt><trkpt lat="46.023575171667815" lon="13.346478926005203"><ele>88.0</ele><time>2026-04-11T08:41:49Z</time></trkpt><trkpt lat="46.023640452077494" lon="13.34650620933259"><ele>88.0</ele><time>2026-04-11T08:41:54Z</time></trkpt><trkpt lat="46.02370305200435" lon="13.346581500990137"><ele>88.0</ele><time>2026-04-11T08:42:00Z</time></trkpt><trkpt lat="46.023756751012094" lon="13.346654884780063"><ele>88.0</ele><time>2026-04-11T08:42:06Z</time></trkpt><trkpt lat="46.02379924206916" lon="13.346726890634892"><ele>88.0</ele><time>2026-04-11T08:42:11Z</time></trkpt><trkpt lat="46.02385536573389" lon="13.346802735005271"><ele>88.0</ele><time>2026-04-11T08:42:17Z</time></trkpt><trkpt lat="46.023926646921424" lon="13.346810270972982"><ele>88.0</ele><time>2026-04-11T08:42:23Z</time></trkpt><trkpt lat="46.02394815525899" lon="13.346720723410595"><ele>88.0</ele><time>2026-04-11T08:42:29Z</time></trkpt><trkpt lat="46.02391817538527" lon="13.346632332912671"><ele>88.0</ele><time>2026-04-11T08:42:35Z</time></trkpt><trkpt lat="46.023884766797345" lon="13.346547066265016"><ele>88.0</ele><time>2026-04-11T08:42:40Z</time></trkpt><trkpt lat="46.023842683014216" lon="13.346474284673162"><ele>88.0</ele><time>2026-04-11T08:42:46Z</time></trkpt><trkpt lat="46.02378860330759" lon="13.346393100726885"><ele>88.0</ele><time>2026-04-11T08:42:52Z</time></trkpt><trkpt lat="46.023743665519575" lon="13.34630184740368"><ele>88.0</ele><time>2026-04-11T08:42:58Z</time></trkpt><trkpt lat="46.02370835342195" lon="13.346217699241562"><ele>88.0</ele><time>2026-04-11T08:43:04Z</time></trkpt><trkpt lat="46.02367036899904" lon="13.34612300387301"><ele>88.0</ele><time>2026-04-11T08:43:10Z</time></trkpt><trkpt lat="46.023645161730464" lon="13.34602288846085"><ele>88.0</ele><time>2026-04-11T08:43:16Z</time></trkpt><trkpt lat="46.02363310124027" lon="13.345924085464508"><ele>88.0</ele><time>2026-04-11T08:43:21Z</time></trkpt><trkpt lat="46.02361880432525" lon="13.34582773437501"><ele>88.0</ele><time>2026-04-11T08:43:26Z</time></trkpt><trkpt lat="46.02361292246847" lon="13.345730399238702"><ele>88.0</ele><time>2026-04-11T08:43:31Z</time></trkpt><trkpt lat="46.023626567894674" lon="13.345633719280972"><ele>88.0</ele><time>2026-04-11T08:43:37Z</time></trkpt><trkpt lat="46.02363250964109" lon="13.345540964643472"><ele>88.0</ele><time>2026-04-11T08:43:42Z</time></trkpt><trkpt lat="46.02364638805109" lon="13.345446482419206"><ele>88.0</ele><time>2026-04-11T08:43:47Z</time></trkpt><trkpt lat="46.02366622890066" lon="13.34535887800652"><ele>88.0</ele><time>2026-04-11T08:43:52Z</time></trkpt><trkpt lat="46.02371343554947" lon="13.345279000731578"><ele>88.0</ele><time>2026-04-11T08:43:58Z</time></trkpt><trkpt lat="46.02377059633767" lon="13.345235264886544"><ele>88.0</ele><time>2026-04-11T08:44:03Z</time></trkpt><trkpt lat="46.02383990953772" lon="13.345239722976002"><ele>88.0</ele><time>2026-04-11T08:44:08Z</time></trkpt><trkpt lat="46.023895109577104" lon="13.345308527378172"><ele>88.0</ele><time>2026-04-11T08:44:14Z</time></trkpt><trkpt lat="46.02390740634856" lon="13.345416244631336"><ele>88.0</ele><time>2026-04-11T08:44:20Z</time></trkpt><trkpt lat="46.023896555610534" lon="13.345505647226389"><ele>88.0</ele><time>2026-04-11T08:44:25Z</time></trkpt><trkpt lat="46.023878888539166" lon="13.345614173391457"><ele>88.0</ele><time>2026-04-11T08:44:31Z</time></trkpt><trkpt lat="46.023843894250795" lon="13.345712118016477"><ele>88.0</ele><time>2026-04-11T08:44:37Z</time></trkpt><trkpt lat="46.02381510267792" lon="13.345806087223815"><ele>88.0</ele><time>2026-04-11T08:44:43Z</time></trkpt><trkpt lat="46.02381321157841" lon="13.345900139423543"><ele>88.0</ele><time>2026-04-11T08:44:48Z</time></trkpt><trkpt lat="46.0238809882338" lon="13.345933847384602"><ele>88.0</ele><time>2026-04-11T08:44:54Z</time></trkpt><trkpt lat="46.02394363801688" lon="13.345877624827"><ele>88.0</ele><time>2026-04-11T08:45:00Z</time></trkpt><trkpt lat="46.02399361049081" lon="13.345797850153849"><ele>88.0</ele><time>2026-04-11T08:45:06Z</time></trkpt><trkpt lat="46.024047030714726" lon="13.345729101788152"><ele>88.0</ele><time>2026-04-11T08:45:12Z</time></trkpt><trkpt lat="46.02410954623996" lon="13.345673674840015"><ele>88.0</ele><time>2026-04-11T08:45:18Z</time></trkpt><trkpt lat="46.02416191533755" lon="13.345735261310418"><ele>88.0</ele><time>2026-04-11T08:45:24Z</time></trkpt><trkpt lat="46.02415679911186" lon="13.345838926377875"><ele>88.0</ele><time>2026-04-11T08:45:30Z</time></trkpt><trkpt lat="46.0241300593024" lon="13.345931218824072"><ele>88.0</ele><time>2026-04-11T08:45:35Z</time></trkpt><trkpt lat="46.02410048373829" lon="13.346018762719472"><ele>88.0</ele><time>2026-04-11T08:45:40Z</time></trkpt><trkpt lat="46.02407558041361" lon="13.346103978875048"><ele>88.0</ele><time>2026-04-11T08:45:45Z</time></trkpt><trkpt lat="46.02405369329558" lon="13.34618920130169"><ele>88.0</ele><time>2026-04-11T08:45:50Z</time></trkpt><trkpt lat="46.02403976402166" lon="13.346296442070232"><ele>88.0</ele><time>2026-04-11T08:45:56Z</time></trkpt><trkpt lat="46.02405131872854" lon="13.346391892960476"><ele>88.0</ele><time>2026-04-11T08:46:02Z</time></trkpt><trkpt lat="46.02406449048225" lon="13.34648933226257"><ele>88.0</ele><time>2026-04-11T08:46:07Z</time></trkpt><trkpt lat="46.02409259903212" lon="13.346582609203313"><ele>88.0</ele><time>2026-04-11T08:46:13Z</time></trkpt><trkpt lat="46.02411708309187" lon="13.346689024783709"><ele>88.0</ele><time>2026-04-11T08:46:19Z</time></trkpt><trkpt lat="46.0241407041881" lon="13.346779972436535"><ele>87.71428571428572</ele><time>2026-04-11T08:46:25Z</time></trkpt><trkpt lat="46.024163802061445" lon="13.346869742197521"><ele>87.42857142857143</ele><time>2026-04-11T08:46:30Z</time></trkpt><trkpt lat="46.02419659806322" lon="13.346966433231936"><ele>87.14285714285714</ele><time>2026-04-11T08:46:36Z</time></trkpt><trkpt lat="46.024232872490195" lon="13.34704406018359"><ele>86.85714285714286</ele><time>2026-04-11T08:46:41Z</time></trkpt><trkpt lat="46.02427290611219" lon="13.34711439365643"><ele>86.57142857142857</ele><time>2026-04-11T08:46:46Z</time></trkpt><trkpt lat="46.02434669073808" lon="13.347131859890506"><ele>86.28571428571429</ele><time>2026-04-11T08:46:52Z</time></trkpt><trkpt lat="46.02441512292932" lon="13.34713199691006"><ele>86.0</ele><time>2026-04-11T08:46:57Z</time></trkpt><trkpt lat="46.02448263606712" lon="13.347101468962196"><ele>86.00000000000001</ele><time>2026-04-11T08:47:03Z</time></trkpt><trkpt lat="46.02454389165408" lon="13.347072203130699"><ele>86.0</ele><time>2026-04-11T08:47:08Z</time></trkpt><trkpt lat="46.02460009290054" lon="13.347028098377173"><ele>86.0</ele><time>2026-04-11T08:47:13Z</time></trkpt><trkpt lat="46.02466783644235" lon="13.346973634354537"><ele>86.0</ele><time>2026-04-11T08:47:19Z</time></trkpt><trkpt lat="46.02471160255445" lon="13.346906529316765"><ele>86.0</ele><time>2026-04-11T08:47:24Z</time></trkpt><trkpt lat="46.02470665145742" lon="13.346812504108492"><ele>86.00000000000001</ele><time>2026-04-11T08:47:30Z</time></trkpt><trkpt lat="46.0246391996529" lon="13.346776277364137"><ele>86.0</ele><time>2026-04-11T08:47:36Z</time></trkpt><trkpt lat="46.02457217399577" lon="13.346758045716623"><ele>86.00000000000001</ele><time>2026-04-11T08:47:41Z</time></trkpt><trkpt lat="46.02450938866957" lon="13.346740275662695"><ele>86.0</ele><time>2026-04-11T08:47:46Z</time></trkpt><trkpt lat="46.02444500520285" lon="13.346708445102376"><ele>86.0</ele><time>2026-04-11T08:47:51Z</time></trkpt><trkpt lat="46.024386703900774" lon="13.346668210575409"><ele>86.0</ele><time>2026-04-11T08:47:56Z</time></trkpt><trkpt lat="46.02433350331115" lon="13.346606355985159"><ele>86.0</ele><time>2026-04-11T08:48:01Z</time></trkpt><trkpt lat="46.02428695110085" lon="13.346537718726497"><ele>86.00000000000001</ele><time>2026-04-11T08:48:06Z</time></trkpt><trkpt lat="46.02425139417065" lon="13.346442689160284"><ele>86.0</ele><time>2026-04-11T08:48:24Z</time></trkpt><trkpt lat="46.0242341590771" lon="13.346352666097477"><ele>86.14285714285715</ele><time>2026-04-11T08:48:29Z</time></trkpt><trkpt lat="46.02423646465167" lon="13.346257418878096"><ele>86.28571428571429</ele><time>2026-04-11T08:48:34Z</time></trkpt><trkpt lat="46.02424756380105" lon="13.34614913834803"><ele>86.42857142857143</ele><time>2026-04-11T08:48:40Z</time></trkpt><trkpt lat="46.02426123120707" lon="13.346058480236053"><ele>86.57142857142858</ele><time>2026-04-11T08:48:45Z</time></trkpt><trkpt lat="46.02429660778021" lon="13.345978036132644"><ele>86.71428571428572</ele><time>2026-04-11T08:48:50Z</time></trkpt><trkpt lat="46.02434519276762" lon="13.345912798597048"><ele>86.85714285714286</ele><time>2026-04-11T08:48:55Z</time></trkpt><trkpt lat="46.02441883269595" lon="13.345913813844906"><ele>87.0</ele><time>2026-04-11T08:49:00Z</time></trkpt><trkpt lat="46.024478888873006" lon="13.34595180076776"><ele>87.0</ele><time>2026-04-11T08:49:05Z</time></trkpt><trkpt lat="46.02453473956559" lon="13.346020459099798"><ele>87.0</ele><time>2026-04-11T08:49:11Z</time></trkpt><trkpt lat="46.024582371481564" lon="13.346084685819646"><ele>87.0</ele><time>2026-04-11T08:49:16.001Z</time></trkpt><trkpt lat="46.024627622129735" lon="13.346157891194897"><ele>87.0</ele><time>2026-04-11T08:49:21.001Z</time></trkpt><trkpt lat="46.024683503087935" lon="13.34622536212248"><ele>87.0</ele><time>2026-04-11T08:49:27Z</time></trkpt><trkpt lat="46.02472629425174" lon="13.346292857768375"><ele>87.0</ele><time>2026-04-11T08:49:32Z</time></trkpt><trkpt lat="46.02477634243827" lon="13.346354059084769"><ele>87.0</ele><time>2026-04-11T08:49:37Z</time></trkpt><trkpt lat="46.02482169684485" lon="13.34642023412311"><ele>86.85714285714286</ele><time>2026-04-11T08:49:42Z</time></trkpt><trkpt lat="46.02486658835666" lon="13.346500186386097"><ele>86.71428571428572</ele><time>2026-04-11T08:49:47Z</time></trkpt><trkpt lat="46.02491915699343" lon="13.346569948191009"><ele>86.57142857142858</ele><time>2026-04-11T08:49:52Z</time></trkpt><trkpt lat="46.02498188847319" lon="13.346635129501975"><ele>86.42857142857143</ele><time>2026-04-11T08:49:58Z</time></trkpt><trkpt lat="46.02502376919342" lon="13.34671256543945"><ele>86.28571428571429</ele><time>2026-04-11T08:50:04Z</time></trkpt><trkpt lat="46.025071587328135" lon="13.346794200361643"><ele>86.14285714285715</ele><time>2026-04-11T08:50:10Z</time></trkpt><trkpt lat="46.025116740344465" lon="13.346860891254245"><ele>86.0</ele><time>2026-04-11T08:50:15Z</time></trkpt><trkpt lat="46.02517190888949" lon="13.346939152633961"><ele>86.00000000000001</ele><time>2026-04-11T08:50:21Z</time></trkpt><trkpt lat="46.02515844754169" lon="13.347033227573242"><ele>86.0</ele><time>2026-04-11T08:50:27Z</time></trkpt><trkpt lat="46.02510115690037" lon="13.347073546338638"><ele>86.0</ele><time>2026-04-11T08:50:32Z</time></trkpt><trkpt lat="46.02503899128708" lon="13.347095102337388"><ele>86.0</ele><time>2026-04-11T08:50:37Z</time></trkpt><trkpt lat="46.02497611343782" lon="13.347114044150867"><ele>86.0</ele><time>2026-04-11T08:50:42Z</time></trkpt><trkpt lat="46.024905992226124" lon="13.347138432512239"><ele>86.00000000000001</ele><time>2026-04-11T08:50:48Z</time></trkpt><trkpt lat="46.02483510899604" lon="13.347160571256834"><ele>86.0</ele><time>2026-04-11T08:50:54Z</time></trkpt><trkpt lat="46.02477029633075" lon="13.347193908967178"><ele>85.85714285714286</ele><time>2026-04-11T08:51:00Z</time></trkpt><trkpt lat="46.02471410581965" lon="13.347236776548593"><ele>85.71428571428572</ele><time>2026-04-11T08:51:05Z</time></trkpt><trkpt lat="46.02466272875946" lon="13.347295401740377"><ele>85.57142857142858</ele><time>2026-04-11T08:51:10Z</time></trkpt><trkpt lat="46.02462339456595" lon="13.347385789485454"><ele>85.42857142857143</ele><time>2026-04-11T08:51:16Z</time></trkpt><trkpt lat="46.02464975741439" lon="13.347468190298857"><ele>85.28571428571428</ele><time>2026-04-11T08:51:21Z</time></trkpt><trkpt lat="46.024678485277676" lon="13.347550400980415"><ele>85.14285714285715</ele><time>2026-04-11T08:51:26Z</time></trkpt><trkpt lat="46.02471801225202" lon="13.347651014404013"><ele>85.0</ele><time>2026-04-11T08:51:32Z</time></trkpt><trkpt lat="46.024742802804376" lon="13.347739322284443"><ele>85.0</ele><time>2026-04-11T08:51:37Z</time></trkpt><trkpt lat="46.02477599329777" lon="13.34783654387633"><ele>85.0</ele><time>2026-04-11T08:51:43Z</time></trkpt><trkpt lat="46.024809292418496" lon="13.347920012317907"><ele>85.0</ele><time>2026-04-11T08:51:48Z</time></trkpt><trkpt lat="46.02483001175217" lon="13.34800728874738"><ele>85.0</ele><time>2026-04-11T08:51:53Z</time></trkpt><trkpt lat="46.024852455020984" lon="13.348096798153046"><ele>85.0</ele><time>2026-04-11T08:51:58Z</time></trkpt><trkpt lat="46.0248646097341" lon="13.348187591037982"><ele>85.0</ele><time>2026-04-11T08:52:03Z</time></trkpt><trkpt lat="46.02487981092541" lon="13.348291238469233"><ele>85.0</ele><time>2026-04-11T08:52:09Z</time></trkpt><trkpt lat="46.02489659072476" lon="13.348384213284112"><ele>85.0</ele><time>2026-04-11T08:52:14Z</time></trkpt><trkpt lat="46.024906878034706" lon="13.348493111098852"><ele>85.0</ele><time>2026-04-11T08:52:20Z</time></trkpt><trkpt lat="46.02492477710625" lon="13.348580600818575"><ele>85.0</ele><time>2026-04-11T08:52:25Z</time></trkpt><trkpt lat="46.0249824182195" lon="13.34862488214122"><ele>85.0</ele><time>2026-04-11T08:52:30Z</time></trkpt><trkpt lat="46.025043751833635" lon="13.348602047895813"><ele>85.0</ele><time>2026-04-11T08:52:41Z</time></trkpt><trkpt lat="46.025079883415366" lon="13.348685601304116"><ele>85.0</ele><time>2026-04-11T08:52:49Z</time></trkpt><trkpt lat="46.025062215906274" lon="13.348782337355093"><ele>85.0</ele><time>2026-04-11T08:52:55Z</time></trkpt><trkpt lat="46.02505264817495" lon="13.348882788014095"><ele>85.0</ele><time>2026-04-11T08:53:01Z</time></trkpt><trkpt lat="46.02508486070108" lon="13.348968313177526"><ele>85.0</ele><time>2026-04-11T08:53:06Z</time></trkpt><trkpt lat="46.025130159794735" lon="13.34904003835174"><ele>85.0</ele><time>2026-04-11T08:53:11Z</time></trkpt><trkpt lat="46.02517656234368" lon="13.349116202498756"><ele>85.0</ele><time>2026-04-11T08:53:17Z</time></trkpt><trkpt lat="46.02520884806902" lon="13.349215799720454"><ele>85.0</ele><time>2026-04-11T08:53:23Z</time></trkpt><trkpt lat="46.025220660772554" lon="13.349318100418596"><ele>85.0</ele><time>2026-04-11T08:53:29Z</time></trkpt><trkpt lat="46.02517735733683" lon="13.349405695370384"><ele>85.0</ele><time>2026-04-11T08:53:35Z</time></trkpt><trkpt lat="46.02512835685548" lon="13.349463331411622"><ele>85.0</ele><time>2026-04-11T08:53:40Z</time></trkpt><trkpt lat="46.025069123090425" lon="13.349524795021958"><ele>85.0</ele><time>2026-04-11T08:53:46Z</time></trkpt><trkpt lat="46.02501281732781" lon="13.34959183409726"><ele>85.0</ele><time>2026-04-11T08:53:52Z</time></trkpt><trkpt lat="46.024957818440825" lon="13.349650645817636"><ele>85.0</ele><time>2026-04-11T08:53:57Z</time></trkpt><trkpt lat="46.024908047867655" lon="13.34970780392087"><ele>85.0</ele><time>2026-04-11T08:54:02Z</time></trkpt><trkpt lat="46.02485758977718" lon="13.349787488084699"><ele>85.0</ele><time>2026-04-11T08:54:08Z</time></trkpt><trkpt lat="46.02480566386549" lon="13.349859437078111"><ele>85.0</ele><time>2026-04-11T08:54:14Z</time></trkpt><trkpt lat="46.02475678496064" lon="13.349931479046601"><ele>84.85714285714286</ele><time>2026-04-11T08:54:19Z</time></trkpt><trkpt lat="46.02471248051353" lon="13.349996061229557"><ele>84.71428571428571</ele><time>2026-04-11T08:54:23Z</time></trkpt><trkpt lat="46.02465189408052" lon="13.350046333136907"><ele>84.57142857142857</ele><time>2026-04-11T08:54:28Z</time></trkpt><trkpt lat="46.02458290723246" lon="13.350076261908805"><ele>84.42857142857143</ele><time>2026-04-11T08:54:33Z</time></trkpt><trkpt lat="46.02450636205373" lon="13.350069360222337"><ele>84.28571428571428</ele><time>2026-04-11T08:54:39Z</time></trkpt><trkpt lat="46.02442988905714" lon="13.350063205024094"><ele>84.14285714285714</ele><time>2026-04-11T08:54:45Z</time></trkpt><trkpt lat="46.024359471261825" lon="13.350072796604742"><ele>84.0</ele><time>2026-04-11T08:54:52Z</time></trkpt><trkpt lat="46.02437094022909" lon="13.350164297951851"><ele>84.0</ele><time>2026-04-11T08:54:58Z</time></trkpt><trkpt lat="46.02442522871744" lon="13.350213665987177"><ele>84.0</ele><time>2026-04-11T08:55:03Z</time></trkpt><trkpt lat="46.0244938277903" lon="13.35024825913073"><ele>84.0</ele><time>2026-04-11T08:55:09Z</time></trkpt><trkpt lat="46.02456456886002" lon="13.350267575924718"><ele>84.0</ele><time>2026-04-11T08:55:15Z</time></trkpt><trkpt lat="46.02464283043466" lon="13.350290846825155"><ele>84.0</ele><time>2026-04-11T08:55:21Z</time></trkpt><trkpt lat="46.024708531635106" lon="13.350311291546534"><ele>84.0</ele><time>2026-04-11T08:55:26Z</time></trkpt><trkpt lat="46.02478145804053" lon="13.350314394985809"><ele>84.0</ele><time>2026-04-11T08:55:32Z</time></trkpt><trkpt lat="46.02484125780493" lon="13.350253614988329"><ele>84.0</ele><time>2026-04-11T08:55:38Z</time></trkpt><trkpt lat="46.024878162946365" lon="13.350177737113274"><ele>84.0</ele><time>2026-04-11T08:55:43Z</time></trkpt><trkpt lat="46.024903026191204" lon="13.350081304562288"><ele>84.0</ele><time>2026-04-11T08:55:49Z</time></trkpt><trkpt lat="46.0249318729668" lon="13.349979505902681"><ele>84.0</ele><time>2026-04-11T08:55:55Z</time></trkpt><trkpt lat="46.024968642381445" lon="13.349893112181217"><ele>84.0</ele><time>2026-04-11T08:56:01Z</time></trkpt><trkpt lat="46.02501613264617" lon="13.349826028115432"><ele>84.0</ele><time>2026-04-11T08:56:06Z</time></trkpt><trkpt lat="46.02506312001566" lon="13.349757504658632"><ele>84.0</ele><time>2026-04-11T08:56:11Z</time></trkpt><trkpt lat="46.02513196647949" lon="13.349710612312439"><ele>84.0</ele><time>2026-04-11T08:56:17Z</time></trkpt><trkpt lat="46.02519916856566" lon="13.349681936177424"><ele>84.0</ele><time>2026-04-11T08:56:23Z</time></trkpt><trkpt lat="46.02526230546734" lon="13.349725778590857"><ele>84.0</ele><time>2026-04-11T08:56:29Z</time></trkpt><trkpt lat="46.02525943713389" lon="13.349835939047258"><ele>84.0</ele><time>2026-04-11T08:56:35Z</time></trkpt><trkpt lat="46.02521647822668" lon="13.349910618843477"><ele>84.0</ele><time>2026-04-11T08:56:40Z</time></trkpt><trkpt lat="46.02516644954275" lon="13.349990439206021"><ele>84.0</ele><time>2026-04-11T08:56:45Z</time></trkpt><trkpt lat="46.02511594562383" lon="13.350065220259912"><ele>84.0</ele><time>2026-04-11T08:56:50Z</time></trkpt><trkpt lat="46.02508292003363" lon="13.350147254269881"><ele>84.0</ele><time>2026-04-11T08:56:55Z</time></trkpt><trkpt lat="46.025053761113114" lon="13.350239088589516"><ele>84.0</ele><time>2026-04-11T08:57:01Z</time></trkpt><trkpt lat="46.025041138951664" lon="13.350329230665144"><ele>84.0</ele><time>2026-04-11T08:57:06Z</time></trkpt><trkpt lat="46.02502724826972" lon="13.350425449593565"><ele>84.0</ele><time>2026-04-11T08:57:11Z</time></trkpt><trkpt lat="46.02501658363981" lon="13.350528501858197"><ele>84.0</ele><time>2026-04-11T08:57:17Z</time></trkpt><trkpt lat="46.02496341320073" lon="13.350593278321398"><ele>84.0</ele><time>2026-04-11T08:57:25Z</time></trkpt><trkpt lat="46.024899074580546" lon="13.350601661448072"><ele>84.0</ele><time>2026-04-11T08:57:31Z</time></trkpt><trkpt lat="46.0248612781768" lon="13.350674400853102"><ele>84.0</ele><time>2026-04-11T08:57:36.999Z</time></trkpt><trkpt lat="46.024814439222176" lon="13.350738823265546"><ele>84.0</ele><time>2026-04-11T08:57:41.999Z</time></trkpt><trkpt lat="46.02476804922469" lon="13.350815045687964"><ele>84.0</ele><time>2026-04-11T08:57:48Z</time></trkpt><trkpt lat="46.02471905408344" lon="13.35088593184769"><ele>84.0</ele><time>2026-04-11T08:57:53Z</time></trkpt><trkpt lat="46.02466283699002" lon="13.350954284240043"><ele>84.0</ele><time>2026-04-11T08:57:59Z</time></trkpt><trkpt lat="46.024609551648204" lon="13.351012414653864"><ele>84.0</ele><time>2026-04-11T08:58:04Z</time></trkpt><trkpt lat="46.02456393038127" lon="13.351076685705431"><ele>84.0</ele><time>2026-04-11T08:58:09Z</time></trkpt><trkpt lat="46.024519538893905" lon="13.351141285019398"><ele>84.0</ele><time>2026-04-11T08:58:14Z</time></trkpt><trkpt lat="46.02455337989553" lon="13.35123815995933"><ele>84.0</ele><time>2026-04-11T08:58:20Z</time></trkpt><trkpt lat="46.02462771591762" lon="13.351272453706208"><ele>84.0</ele><time>2026-04-11T08:58:26Z</time></trkpt><trkpt lat="46.02469148444739" lon="13.351308888705303"><ele>84.0</ele><time>2026-04-11T08:58:32Z</time></trkpt><trkpt lat="46.02474497854311" lon="13.35136783001073"><ele>84.0</ele><time>2026-04-11T08:58:37Z</time></trkpt><trkpt lat="46.024783677254476" lon="13.35145590464323"><ele>84.0</ele><time>2026-04-11T08:58:43Z</time></trkpt><trkpt lat="46.02477620770721" lon="13.35154784102283"><ele>84.0</ele><time>2026-04-11T08:58:48Z</time></trkpt><trkpt lat="46.024742143822195" lon="13.351645259225263"><ele>84.28571428571429</ele><time>2026-04-11T08:58:54Z</time></trkpt><trkpt lat="46.02469611006363" lon="13.35171301384719"><ele>84.57142857142857</ele><time>2026-04-11T08:58:59Z</time></trkpt><trkpt lat="46.0246300948778" lon="13.35174815342438"><ele>84.85714285714286</ele><time>2026-04-11T08:59:05Z</time></trkpt><trkpt lat="46.024553869995955" lon="13.351751167455982"><ele>85.14285714285714</ele><time>2026-04-11T08:59:11Z</time></trkpt><trkpt lat="46.02449070932289" lon="13.3517094408451"><ele>85.42857142857143</ele><time>2026-04-11T08:59:17Z</time></trkpt><trkpt lat="46.02447839321184" lon="13.351603042413407"><ele>85.71428571428572</ele><time>2026-04-11T08:59:22Z</time></trkpt><trkpt lat="46.0244641826667" lon="13.351505170588933"><ele>86.0</ele><time>2026-04-11T08:59:27Z</time></trkpt><trkpt lat="46.02445345427589" lon="13.351407340843924"><ele>86.0</ele><time>2026-04-11T08:59:32Z</time></trkpt><trkpt lat="46.024421947118604" lon="13.351316955866311"><ele>84.0</ele><time>2026-04-11T08:59:37Z</time></trkpt><trkpt lat="46.02438822207653" lon="13.351232458111935"><ele>84.0</ele><time>2026-04-11T08:59:42Z</time></trkpt><trkpt lat="46.024328836433874" lon="13.351169480953606"><ele>84.0</ele><time>2026-04-11T08:59:48Z</time></trkpt></trkseg></trk></gpx>